Windham, NY (12496)

9:50 AM EDT on October 24, 2014 (GMT -0400)
Poverty Flats | Change Station
CLOSE
Current Station
Personal Weather Station
Location: Hunter, NY
Elevation: 1598 ft
Nearby Weather Stations

Elev 1598 ft 42.21 °N, 74.22 °W | Updated 10 minutes ago

Overcast
Overcast
42.4 °F
Feels Like 42 °F
N
1.1
Wind Variable Wind from SSE

Today
High -- | Low -- °F
--% Chance of Precip.
Yesterday
High -- | Low -- °F
Precip. -- in
7:20 AM 6:01 PM
New Moon, 0% visible
Pressure 29.86 in
Visibility 1.5 miles
Clouds Mostly Cloudy 600 ft
Overcast 1200 ft
Windchill 42 °F
Dew Point 40 °F
Humidity 93%
Rainfall 0.02 in
Snow Depth Not available.
UV 0 out of 12
Pollen .10 out of 12
Air Quality Not available.
Flu Activity Not available.
SPECI KALB 241323Z COR 02004KT 1 1/2SM -DZ BR BKN006 OVC012 08/07 A2986 RMK AO2 SFC VIS 2 VIS 1 1/4V3 CIG 004V008 P0000 T00780067 $

More Conditions Fewer Conditions

Pressure 29.86 in
Visibility 1.5 miles
Clouds Mostly Cloudy 600 ft
Overcast 1200 ft
Windchill 42 °F
Dew Point 40 °F
Humidity 93%
Rainfall 0.02 in
Snow Depth Not available.
UV 0 out of 12
Pollen .10 out of 12
Air Quality Not available.
Flu Activity Not available.
SPECI KALB 241323Z COR 02004KT 1 1/2SM -DZ BR BKN006 OVC012 08/07 A2986 RMK AO2 SFC VIS 2 VIS 1 1/4V3 CIG 004V008 P0000 T00780067 $

More Conditions Fewer Conditions

10-Day Weather Forecast

Almanac

Astronomy

Oct. 24, 2014 Rise Set
Actual Time 7:20 AM EDT 6:01 PM EDT
Civil Twilight 6:51 AM EDT 6:30 PM EDT
Nautical Twilight 6:19 AM EDT 7:02 PM EDT
Astronomical Twilight 5:46 AM EDT 7:35 PM EDT
Moon 7:57 AM EDT 6:38 PM EDT
Length of Visible Light 11h 38m
Length of Day
10h 40m
Tomorrow will be 2m 38s shorter.
New Moon, 0% of the Moon is Illuminated
Today
New Moon
Oct 30
First Quarter
Nov 6
Full
Nov 14
Last Quarter
Nov 22
New

Today's Extremes

State Highs State Lows

Community

WunderPhotos

Upload Photos

1,764,551 photos uploaded!

WunderBlogs® & News

By Dr. Jeff Masters
Director of Meteorology, Weather Underground
By Kari Strenfel
Meteorologist, Weather Underground
By Christopher C. Burt
Weather Historian, Weather Underground
October 24, 2014
October 24, 2014
October 24, 2014

Nearby

Snow Depth

Station Depth Elevation
No new snow has been reported.

Earthquake Activity

City Distance Mag. Time & Date
No recent earthquake activity has been reported nearby.
Minimum magnitude displayed is 2.5.

Coastal Water Temperatures

Place Temperature
No Stations Reporting

Nearby Weather Stations